createdAt,value
2018-08-04T00:00:12.039Z,617
2018-08-04T00:01:19.252Z,617
2018-08-04T00:02:26.478Z,615
2018-08-04T00:03:33.417Z,616
2018-08-04T00:04:40.629Z,615
2018-08-04T00:05:47.564Z,615
2018-08-04T00:06:54.786Z,615
2018-08-04T00:08:02.007Z,615
2018-08-04T00:09:23.870Z,615
2018-08-04T00:10:31.092Z,616
2018-08-04T00:11:38.033Z,615
2018-08-04T00:12:45.246Z,616
2018-08-04T00:13:52.456Z,616
2018-08-04T00:14:59.671Z,616
2018-08-04T00:16:06.885Z,616
2018-08-04T00:17:14.102Z,616
2018-08-04T00:18:21.315Z,616
2018-08-04T00:19:28.528Z,615
2018-08-04T00:20:35.745Z,615
2018-08-04T00:21:42.964Z,616
2018-08-04T00:22:50.174Z,616
2018-08-04T00:23:57.393Z,616
2018-08-04T00:25:04.604Z,616
2018-08-04T00:26:11.817Z,615
2018-08-04T00:27:18.763Z,615
2018-08-04T00:28:25.977Z,615
2018-08-04T00:29:33.193Z,615
2018-08-04T00:30:40.409Z,615
2018-08-04T00:31:47.623Z,617
2018-08-04T00:32:54.842Z,616
2018-08-04T00:34:02.059Z,616
2018-08-04T00:35:09.275Z,616
2018-08-04T00:36:16.489Z,615
2018-08-04T00:37:23.705Z,615
2018-08-04T00:38:30.646Z,615
2018-08-04T00:39:37.861Z,616
2018-08-04T00:40:45.079Z,615
2018-08-04T00:41:52.289Z,616
2018-08-04T00:42:59.510Z,615
2018-08-04T00:44:06.723Z,615
2018-08-04T00:45:13.939Z,615
2018-08-04T00:46:21.149Z,614
2018-08-04T00:47:28.100Z,613
2018-08-04T00:48:35.316Z,614
2018-08-04T00:49:42.528Z,613
2018-08-04T00:50:49.744Z,613
2018-08-04T00:51:56.957Z,613
2018-08-04T00:53:04.172Z,613
2018-08-04T00:54:11.383Z,612
2018-08-04T00:55:18.596Z,612
2018-08-04T00:56:25.813Z,612
2018-08-04T00:57:33.024Z,612
2018-08-04T00:58:40.239Z,612
2018-08-04T00:59:47.171Z,612
2018-08-04T01:00:54.383Z,611
2018-08-04T01:02:01.612Z,611
2018-08-04T01:03:08.557Z,611
2018-08-04T01:04:15.775Z,610
2018-08-04T01:05:22.992Z,610
2018-08-04T01:06:30.212Z,611
2018-08-04T01:07:37.152Z,610
2018-08-04T01:08:44.364Z,610
2018-08-04T01:09:51.589Z,610
2018-08-04T01:10:58.524Z,611
2018-08-04T01:12:05.737Z,610
2018-08-04T01:13:12.949Z,609
2018-08-04T01:14:19.899Z,609
2018-08-04T01:15:27.112Z,610
2018-08-04T01:16:34.329Z,609
2018-08-04T01:17:41.548Z,609
2018-08-04T01:18:48.491Z,609
2018-08-04T01:19:55.430Z,608
2018-08-04T01:21:02.643Z,609
2018-08-04T01:22:09.867Z,609
2018-08-04T01:23:17.081Z,609
2018-08-04T01:24:24.295Z,609
2018-08-04T01:25:31.506Z,608
2018-08-04T01:26:38.720Z,609
2018-08-04T01:27:45.932Z,608
2018-08-04T01:28:53.147Z,608
2018-08-04T01:30:00.367Z,609
2018-08-04T01:31:07.584Z,608
2018-08-04T01:32:14.798Z,608
2018-08-04T01:33:22.015Z,608
2018-08-04T01:34:29.229Z,607
2018-08-04T01:35:36.447Z,607
2018-08-04T01:36:43.656Z,607
2018-08-04T01:37:50.872Z,608
2018-08-04T01:38:57.809Z,607
2018-08-04T01:40:05.024Z,608
2018-08-04T01:41:12.236Z,607
2018-08-04T01:42:19.459Z,607
2018-08-04T01:43:26.675Z,607
2018-08-04T01:44:33.887Z,607
2018-08-04T01:45:41.102Z,607
2018-08-04T01:46:48.046Z,607
2018-08-04T01:47:55.485Z,607
2018-08-04T01:49:02.701Z,607
2018-08-04T01:50:09.912Z,606
2018-08-04T01:51:17.125Z,606
2018-08-04T01:52:24.371Z,606
2018-08-04T01:53:31.044Z,606
2018-08-04T01:54:37.983Z,605
2018-08-04T01:55:45.195Z,606
2018-08-04T01:56:52.413Z,605
2018-08-04T01:57:59.624Z,605
2018-08-04T01:59:06.928Z,605
2018-08-04T02:00:14.160Z,604
2018-08-04T02:01:21.393Z,605
2018-08-04T02:02:28.591Z,605
2018-08-04T02:03:35.802Z,605
2018-08-04T02:04:43.012Z,604
2018-08-04T02:05:50.229Z,605
2018-08-04T02:06:57.444Z,605
2018-08-04T02:08:04.661Z,605
2018-08-04T02:09:11.607Z,605
2018-08-04T02:10:18.818Z,605
2018-08-04T02:11:25.765Z,605
2018-08-04T02:12:32.980Z,605
2018-08-04T02:13:40.193Z,604
2018-08-04T02:14:47.136Z,604
2018-08-04T02:15:53.821Z,605
2018-08-04T02:17:01.029Z,604
2018-08-04T02:18:08.248Z,604
2018-08-04T02:19:15.464Z,604
2018-08-04T02:20:22.683Z,605
2018-08-04T02:21:29.896Z,605
2018-08-04T02:22:37.113Z,605
2018-08-04T02:23:44.324Z,604
2018-08-04T02:24:51.535Z,605
2018-08-04T02:25:58.750Z,605
2018-08-04T02:27:05.692Z,605
2018-08-04T02:28:12.902Z,605
2018-08-04T02:29:20.118Z,605
2018-08-04T02:30:27.333Z,606
2018-08-04T02:31:34.543Z,606
2018-08-04T02:32:41.758Z,606
2018-08-04T02:33:48.972Z,606
2018-08-04T02:34:56.185Z,607
2018-08-04T02:36:03.400Z,606
2018-08-04T02:37:10.612Z,607
2018-08-04T02:38:17.824Z,608
2018-08-04T02:39:25.044Z,607
2018-08-04T02:40:31.995Z,605
2018-08-04T02:41:39.209Z,606
2018-08-04T02:42:46.421Z,606
2018-08-04T02:43:53.637Z,605
2018-08-04T02:45:00.853Z,604
2018-08-04T02:46:08.068Z,604
2018-08-04T02:47:15.285Z,604
2018-08-04T02:48:22.496Z,604
2018-08-04T02:49:29.708Z,603
2018-08-04T02:50:36.938Z,604
2018-08-04T02:51:44.150Z,603
2018-08-04T02:52:51.363Z,603
2018-08-04T02:53:58.302Z,603
2018-08-04T02:55:05.513Z,602
2018-08-04T02:56:12.184Z,602
2018-08-04T02:57:19.397Z,601
2018-08-04T02:58:26.608Z,602
2018-08-04T02:59:33.827Z,601
2018-08-04T03:00:41.039Z,602
2018-08-04T03:01:47.953Z,601
2018-08-04T03:02:55.168Z,601
2018-08-04T03:04:02.392Z,601
2018-08-04T03:05:09.597Z,601
2018-08-04T03:06:16.809Z,602
2018-08-04T03:07:24.026Z,601
2018-08-04T03:08:31.390Z,601
2018-08-04T03:09:38.752Z,600
2018-08-04T03:10:46.196Z,600
2018-08-04T03:11:53.392Z,600
2018-08-04T03:13:00.612Z,600
2018-08-04T03:14:07.835Z,600
2018-08-04T03:15:15.049Z,600
2018-08-04T03:16:21.990Z,600
2018-08-04T03:17:29.198Z,600
2018-08-04T03:18:36.410Z,600
2018-08-04T03:19:43.623Z,600
2018-08-04T03:20:50.834Z,600
2018-08-04T03:21:58.047Z,599
2018-08-04T03:23:05.265Z,599
2018-08-04T03:24:12.479Z,598
2018-08-04T03:25:19.418Z,597
2018-08-04T03:26:26.366Z,597
2018-08-04T03:27:33.576Z,598
2018-08-04T03:28:40.801Z,598
2018-08-04T03:29:48.013Z,598
2018-08-04T03:30:55.232Z,597
2018-08-04T03:32:02.445Z,597
2018-08-04T03:33:09.661Z,597
2018-08-04T03:34:16.878Z,597
2018-08-04T03:35:23.819Z,597
2018-08-04T03:36:31.029Z,597
2018-08-04T03:37:37.985Z,596
2018-08-04T03:38:45.193Z,597
2018-08-04T03:39:52.173Z,596
2018-08-04T03:40:59.386Z,596
2018-08-04T03:42:06.610Z,597
2018-08-04T03:43:13.826Z,597
2018-08-04T03:44:21.044Z,597
2018-08-04T03:45:28.254Z,597
2018-08-04T03:46:35.467Z,597
2018-08-04T03:47:42.410Z,597
2018-08-04T03:48:49.617Z,597
2018-08-04T03:49:56.827Z,597
2018-08-04T03:51:04.041Z,597
2018-08-04T03:52:11.267Z,597
2018-08-04T03:53:18.478Z,598
2018-08-04T03:54:25.702Z,598
2018-08-04T03:55:32.916Z,598
2018-08-04T03:56:40.128Z,598
2018-08-04T03:57:47.067Z,598
2018-08-04T03:58:54.279Z,599
2018-08-04T04:00:01.216Z,599
2018-08-04T04:01:08.189Z,599
2018-08-04T04:02:15.408Z,599
2018-08-04T04:03:22.621Z,599
2018-08-04T04:04:29.838Z,599
2018-08-04T04:05:37.059Z,600
2018-08-04T04:06:44.440Z,599
2018-08-04T04:07:51.916Z,599
2018-08-04T04:08:59.129Z,599
2018-08-04T04:10:06.342Z,598
2018-08-04T04:11:13.554Z,598
2018-08-04T04:12:20.769Z,598
2018-08-04T04:13:27.985Z,596
2018-08-04T04:14:35.199Z,596
2018-08-04T04:15:42.413Z,596
2018-08-04T04:16:49.656Z,596
2018-08-04T04:17:56.865Z,595
2018-08-04T04:19:04.090Z,595
2018-08-04T04:20:11.301Z,595
2018-08-04T04:21:18.510Z,595
2018-08-04T04:22:25.456Z,593
2018-08-04T04:23:32.674Z,594
2018-08-04T04:24:39.894Z,593
2018-08-04T04:25:47.109Z,594
2018-08-04T04:26:54.321Z,593
2018-08-04T04:28:01.267Z,593
2018-08-04T04:29:08.515Z,592
2018-08-04T04:30:15.727Z,593
2018-08-04T04:31:22.943Z,593
2018-08-04T04:32:30.161Z,593
2018-08-04T04:33:37.369Z,592
2018-08-04T04:34:44.580Z,593
2018-08-04T04:35:51.794Z,593
2018-08-04T04:36:59.216Z,593
2018-08-04T04:38:06.470Z,592
2018-08-04T04:39:13.685Z,592
2018-08-04T04:40:20.620Z,593
2018-08-04T04:41:27.835Z,593
2018-08-04T04:42:35.056Z,593
2018-08-04T04:43:42.272Z,592
2018-08-04T04:44:49.486Z,593
2018-08-04T04:45:56.715Z,593
2018-08-04T04:47:03.922Z,594
2018-08-04T04:48:11.141Z,595
2018-08-04T04:49:18.355Z,595
2018-08-04T04:50:25.568Z,594
2018-08-04T04:51:32.779Z,595
2018-08-04T04:52:39.721Z,596
2018-08-04T04:53:46.936Z,596
2018-08-04T04:54:54.150Z,595
2018-08-04T04:56:01.369Z,596
2018-08-04T04:57:08.588Z,596
2018-08-04T04:58:15.803Z,596
2018-08-04T04:59:23.018Z,596
2018-08-04T05:00:30.231Z,595
2018-08-04T05:01:37.452Z,596
2018-08-04T05:02:44.662Z,596
2018-08-04T05:03:51.874Z,596
2018-08-04T05:04:59.085Z,597
2018-08-04T05:06:06.302Z,596
2018-08-04T05:07:13.244Z,597
2018-08-04T05:08:20.455Z,597
2018-08-04T05:09:27.677Z,597
2018-08-04T05:10:34.890Z,596
2018-08-04T05:11:42.103Z,596
2018-08-04T05:12:49.316Z,596
2018-08-04T05:13:56.533Z,595
2018-08-04T05:15:03.751Z,595
2018-08-04T05:16:10.973Z,595
2018-08-04T05:17:18.193Z,595
2018-08-04T05:18:25.409Z,594
2018-08-04T05:19:32.628Z,594
2018-08-04T05:20:39.834Z,594
2018-08-04T05:21:47.047Z,594
2018-08-04T05:22:53.993Z,593
2018-08-04T05:24:01.210Z,593
2018-08-04T05:25:08.425Z,594
2018-08-04T05:26:15.638Z,594
2018-08-04T05:27:22.854Z,594
2018-08-04T05:28:30.053Z,593
2018-08-04T05:29:37.270Z,592
2018-08-04T05:30:44.489Z,592
2018-08-04T05:31:51.734Z,592
2018-08-04T05:32:58.953Z,591
2018-08-04T05:34:06.172Z,591
2018-08-04T05:35:13.110Z,590
2018-08-04T05:36:20.328Z,590
2018-08-04T05:37:27.636Z,590
2018-08-04T05:38:34.942Z,589
2018-08-04T05:39:42.156Z,589
2018-08-04T05:40:49.378Z,589
2018-08-04T05:41:56.597Z,589
2018-08-04T05:43:03.809Z,589
2018-08-04T05:44:11.023Z,588
2018-08-04T05:45:18.243Z,589
2018-08-04T05:46:25.457Z,588
2018-08-04T05:47:32.668Z,588
2018-08-04T05:48:39.888Z,588
2018-08-04T05:49:47.097Z,587
2018-08-04T05:50:54.315Z,587
2018-08-04T05:52:01.534Z,586
2018-08-04T05:53:08.748Z,586
2018-08-04T05:54:15.692Z,586
2018-08-04T05:55:22.911Z,586
2018-08-04T05:56:30.134Z,586
2018-08-04T05:57:37.346Z,585
2018-08-04T05:58:44.559Z,585
2018-08-04T05:59:51.777Z,586
2018-08-04T06:00:58.989Z,585
2018-08-04T06:02:05.929Z,585
2018-08-04T06:03:13.213Z,585
2018-08-04T06:04:20.417Z,585
2018-08-04T06:05:27.361Z,584
2018-08-04T06:06:34.575Z,584
2018-08-04T06:07:41.790Z,584
2018-08-04T06:08:48.732Z,584
2018-08-04T06:09:55.668Z,584
2018-08-04T06:11:02.929Z,584
2018-08-04T06:12:10.128Z,583
2018-08-04T06:13:17.342Z,584
2018-08-04T06:14:24.609Z,584
2018-08-04T06:15:31.824Z,583
2018-08-04T06:16:39.045Z,584
2018-08-04T06:17:46.258Z,583
2018-08-04T06:18:53.474Z,583
2018-08-04T06:20:00.418Z,583
2018-08-04T06:21:07.647Z,583
2018-08-04T06:22:14.864Z,583
2018-08-04T06:23:22.078Z,583
2018-08-04T06:24:29.297Z,583
2018-08-04T06:25:36.271Z,582
2018-08-04T06:26:43.486Z,582
2018-08-04T06:27:50.705Z,582
2018-08-04T06:28:57.927Z,582
2018-08-04T06:30:05.141Z,581
2018-08-04T06:31:12.390Z,581
2018-08-04T06:32:19.622Z,581
2018-08-04T06:33:26.827Z,581
2018-08-04T06:34:34.045Z,581
2018-08-04T06:35:41.265Z,581
2018-08-04T06:36:48.481Z,580
2018-08-04T06:37:55.696Z,580
2018-08-04T06:39:02.908Z,580
2018-08-04T06:40:10.128Z,579
2018-08-04T06:41:17.334Z,580
2018-08-04T06:42:24.294Z,579
2018-08-04T06:43:31.506Z,579
2018-08-04T06:44:38.725Z,580
2018-08-04T06:45:45.938Z,578
2018-08-04T06:46:53.185Z,578
2018-08-04T06:48:00.404Z,578
2018-08-04T06:49:07.624Z,578
2018-08-04T06:50:14.845Z,578
2018-08-04T06:51:21.788Z,577
2018-08-04T06:52:28.999Z,577
2018-08-04T06:53:36.220Z,577
2018-08-04T06:54:43.443Z,577
2018-08-04T06:55:50.654Z,577
2018-08-04T06:56:57.873Z,576
2018-08-04T06:58:05.107Z,576
2018-08-04T06:59:12.334Z,577
2018-08-04T07:00:19.547Z,576
2018-08-04T07:01:26.769Z,576
2018-08-04T07:02:33.985Z,576
2018-08-04T07:03:41.606Z,577
2018-08-04T07:04:48.550Z,576
2018-08-04T07:05:55.772Z,576
2018-08-04T07:07:02.990Z,575
2018-08-04T07:08:10.212Z,575
2018-08-04T07:09:17.432Z,575
2018-08-04T07:10:24.655Z,576
2018-08-04T07:11:31.873Z,576
2018-08-04T07:12:39.097Z,576
2018-08-04T07:13:46.483Z,576
2018-08-04T07:14:53.712Z,576
2018-08-04T07:16:00.981Z,576
2018-08-04T07:17:08.197Z,575
2018-08-04T07:18:15.418Z,576
2018-08-04T07:19:22.638Z,576
2018-08-04T07:20:29.857Z,575
2018-08-04T07:21:37.070Z,576
2018-08-04T07:22:44.316Z,575
2018-08-04T07:23:51.521Z,574
2018-08-04T07:24:58.745Z,574
2018-08-04T07:26:05.966Z,574
2018-08-04T07:27:12.914Z,574
2018-08-04T07:28:20.162Z,574
2018-08-04T07:29:27.383Z,574
2018-08-04T07:30:34.597Z,575
2018-08-04T07:31:41.814Z,576
2018-08-04T07:32:49.033Z,574
2018-08-04T07:33:55.987Z,574
2018-08-04T07:35:03.206Z,574
2018-08-04T07:36:10.423Z,573
2018-08-04T07:37:17.640Z,572
2018-08-04T07:38:24.855Z,572
2018-08-04T07:39:32.075Z,572
2018-08-04T07:40:39.295Z,571
2018-08-04T07:41:46.236Z,571
2018-08-04T07:42:53.453Z,571
2018-08-04T07:44:00.393Z,571
2018-08-04T07:45:07.608Z,571
2018-08-04T07:46:14.830Z,569
2018-08-04T07:47:22.054Z,571
2018-08-04T07:48:29.276Z,573
2018-08-04T07:49:36.493Z,574
2018-08-04T07:50:43.436Z,573
2018-08-04T07:51:50.383Z,572
2018-08-04T07:52:57.596Z,571
2018-08-04T07:54:04.817Z,570
2018-08-04T07:55:12.036Z,569
2018-08-04T07:56:19.251Z,570
2018-08-04T07:57:26.469Z,568
2018-08-04T07:58:33.693Z,568
2018-08-04T07:59:40.957Z,568
2018-08-04T08:00:48.171Z,568
2018-08-04T08:01:55.394Z,567
2018-08-04T08:03:02.615Z,568
2018-08-04T08:04:09.827Z,568
2018-08-04T08:05:17.050Z,568
2018-08-04T08:06:24.262Z,568
2018-08-04T08:07:31.483Z,570
2018-08-04T08:08:38.694Z,570
2018-08-04T08:09:45.915Z,568
2018-08-04T08:10:53.672Z,567
2018-08-04T08:12:01.061Z,566
2018-08-04T08:13:08.283Z,566
2018-08-04T08:14:15.499Z,567
2018-08-04T08:15:22.718Z,566
2018-08-04T08:16:29.964Z,566
2018-08-04T08:17:37.189Z,566
2018-08-04T08:18:44.403Z,565
2018-08-04T08:19:51.350Z,564
2018-08-04T08:20:58.572Z,565
2018-08-04T08:22:05.791Z,564
2018-08-04T08:23:13.153Z,564
2018-08-04T08:24:20.202Z,563
2018-08-04T08:25:27.427Z,564
2018-08-04T08:26:34.647Z,565
2018-08-04T08:27:41.598Z,565
2018-08-04T08:28:48.815Z,564
2018-08-04T08:29:56.036Z,566
2018-08-04T08:31:03.253Z,569
2018-08-04T08:32:10.474Z,567
2018-08-04T08:33:17.701Z,569
2018-08-04T08:34:24.662Z,568
2018-08-04T08:35:31.881Z,568
2018-08-04T08:36:39.101Z,570
2018-08-04T08:37:46.321Z,570
2018-08-04T08:38:53.539Z,570
2018-08-04T08:40:00.754Z,570
2018-08-04T08:41:07.972Z,570
2018-08-04T08:42:15.193Z,570
2018-08-04T08:43:22.405Z,567
2018-08-04T08:44:29.685Z,565
2018-08-04T08:45:36.892Z,564
2018-08-04T08:46:44.123Z,566
2018-08-04T08:47:51.347Z,565
2018-08-04T08:48:58.574Z,565
2018-08-04T08:50:06.022Z,566
2018-08-04T08:51:13.231Z,565
2018-08-04T08:52:20.452Z,563
2018-08-04T08:53:28.581Z,562
2018-08-04T08:54:35.892Z,561
2018-08-04T08:55:42.605Z,561
2018-08-04T08:56:49.827Z,562
2018-08-04T08:57:57.048Z,564
2018-08-04T08:59:04.273Z,565
2018-08-04T09:00:11.228Z,566
2018-08-04T09:01:18.565Z,565
2018-08-04T09:02:25.806Z,563
2018-08-04T09:03:33.034Z,562
2018-08-04T09:04:40.253Z,561
2018-08-04T09:05:47.485Z,559
2018-08-04T09:06:54.710Z,560
2018-08-04T09:08:01.932Z,560
2018-08-04T09:09:09.149Z,560
2018-08-04T09:10:16.568Z,559
2018-08-04T09:11:23.791Z,559
2018-08-04T09:12:31.268Z,558
2018-08-04T09:13:38.498Z,558
2018-08-04T09:14:45.718Z,562
2018-08-04T09:15:52.938Z,560
2018-08-04T09:17:00.159Z,560
2018-08-04T09:18:07.383Z,563
2018-08-04T09:19:14.606Z,560
2018-08-04T09:20:21.553Z,558
2018-08-04T09:21:28.234Z,558
2018-08-04T09:22:35.455Z,561
2018-08-04T09:23:42.677Z,560
2018-08-04T09:24:49.899Z,557
2018-08-04T09:25:57.120Z,556
2018-08-04T09:27:04.337Z,555
2018-08-04T09:28:11.558Z,554
2018-08-04T09:29:18.784Z,554
2018-08-04T09:30:26.007Z,552
2018-08-04T09:31:33.231Z,551
2018-08-04T09:32:40.454Z,553
2018-08-04T09:33:47.678Z,552
2018-08-04T09:34:54.902Z,553
2018-08-04T09:36:02.124Z,555
2018-08-04T09:37:09.342Z,556
2018-08-04T09:38:16.561Z,554
2018-08-04T09:39:23.791Z,553
2018-08-04T09:40:31.014Z,552
2018-08-04T09:41:38.241Z,552
2018-08-04T09:42:45.509Z,551
2018-08-04T09:43:52.733Z,551
2018-08-04T09:44:59.955Z,551
2018-08-04T09:46:07.178Z,551
2018-08-04T09:47:14.396Z,552
2018-08-04T09:48:21.618Z,552
2018-08-04T09:49:28.848Z,551
2018-08-04T09:50:36.069Z,552
2018-08-04T09:51:43.300Z,551
2018-08-04T09:52:50.526Z,551
2018-08-04T09:53:57.752Z,550
2018-08-04T09:55:04.974Z,552
2018-08-04T09:56:12.200Z,552
2018-08-04T09:57:19.444Z,551
2018-08-04T09:58:26.668Z,551
2018-08-04T09:59:33.629Z,549
2018-08-04T10:00:40.591Z,546
2018-08-04T10:01:47.812Z,545
2018-08-04T10:02:55.033Z,544
2018-08-04T10:04:01.987Z,544
2018-08-04T10:05:09.369Z,540
2018-08-04T10:06:16.585Z,545
2018-08-04T10:07:23.544Z,539
2018-08-04T10:08:30.776Z,534
2018-08-04T10:09:37.724Z,532
2018-08-04T10:10:44.946Z,531
2018-08-04T10:11:52.172Z,529
2018-08-04T10:12:59.421Z,528
2018-08-04T10:14:06.121Z,527
2018-08-04T10:15:13.346Z,525
2018-08-04T10:16:20.308Z,526
2018-08-04T10:17:27.522Z,524
2018-08-04T10:18:34.745Z,526
2018-08-04T10:19:41.968Z,523
2018-08-04T10:20:49.192Z,520
2018-08-04T10:21:56.422Z,524
2018-08-04T10:23:03.647Z,520
2018-08-04T10:24:10.601Z,522
2018-08-04T10:25:17.825Z,522
2018-08-04T10:26:25.056Z,522
2018-08-04T10:27:32.284Z,522
2018-08-04T10:28:39.509Z,519
2018-08-04T10:29:46.737Z,517
2018-08-04T10:30:53.971Z,515
2018-08-04T10:32:01.479Z,514
2018-08-04T10:33:08.671Z,513
2018-08-04T10:34:15.906Z,512
2018-08-04T10:35:23.143Z,511
2018-08-04T10:36:30.090Z,511
2018-08-04T10:37:37.328Z,517
2018-08-04T10:38:44.599Z,515
2018-08-04T10:39:51.552Z,511
2018-08-04T10:40:58.781Z,509
2018-08-04T10:42:05.737Z,518
2018-08-04T10:43:12.964Z,521
2018-08-04T10:44:20.189Z,513
2018-08-04T10:45:27.415Z,510
2018-08-04T10:46:34.643Z,508
2018-08-04T10:47:41.871Z,509
2018-08-04T10:48:49.096Z,513
2018-08-04T10:49:56.318Z,515
2018-08-04T10:51:03.269Z,519
2018-08-04T10:52:10.491Z,518
2018-08-04T10:53:17.714Z,514
2018-08-04T10:54:24.942Z,511
2018-08-04T10:55:32.184Z,508
2018-08-04T10:56:39.412Z,508
2018-08-04T10:57:46.644Z,504
2018-08-04T10:58:53.868Z,507
2018-08-04T11:00:01.090Z,506
2018-08-04T11:01:08.324Z,505
2018-08-04T11:02:15.552Z,511
2018-08-04T11:03:22.783Z,512
2018-08-04T11:04:30.013Z,516
2018-08-04T11:05:37.234Z,510
2018-08-04T11:06:44.462Z,503
2018-08-04T11:07:51.677Z,504
2018-08-04T11:08:58.905Z,507
2018-08-04T11:10:06.130Z,508
2018-08-04T11:11:13.360Z,502
2018-08-04T11:12:20.595Z,501
2018-08-04T11:13:27.816Z,499
2018-08-04T11:14:35.040Z,499
2018-08-04T11:15:42.273Z,498
2018-08-04T11:16:49.545Z,512
2018-08-04T11:17:56.772Z,520
2018-08-04T11:19:03.989Z,511
2018-08-04T11:20:11.215Z,513
2018-08-04T11:21:18.442Z,511
2018-08-04T11:22:25.669Z,511
2018-08-04T11:23:32.895Z,517
2018-08-04T11:24:40.122Z,526
2018-08-04T11:25:47.751Z,520
2018-08-04T11:26:54.978Z,517
2018-08-04T11:28:02.203Z,512
2018-08-04T11:29:09.426Z,510
2018-08-04T11:30:16.650Z,511
2018-08-04T11:31:23.877Z,524
2018-08-04T11:32:31.102Z,532
2018-08-04T11:33:38.328Z,538
2018-08-04T11:34:45.551Z,542
2018-08-04T11:35:52.776Z,532
2018-08-04T11:37:00.002Z,520
2018-08-04T11:38:07.234Z,518
2018-08-04T11:39:14.466Z,518
2018-08-04T11:40:21.685Z,517
2018-08-04T11:41:28.913Z,526
2018-08-04T11:42:36.145Z,536
2018-08-04T11:43:43.370Z,550
2018-08-04T11:44:50.597Z,559
2018-08-04T11:45:57.822Z,565
2018-08-04T11:47:05.047Z,566
2018-08-04T11:48:12.271Z,566
2018-08-04T11:49:19.494Z,566
2018-08-04T11:50:26.444Z,565
2018-08-04T11:51:33.803Z,566
2018-08-04T11:52:41.208Z,567
2018-08-04T11:53:48.178Z,570
2018-08-04T11:54:55.397Z,570
2018-08-04T11:56:02.634Z,570
2018-08-04T11:57:09.936Z,572
2018-08-04T11:58:17.217Z,572
2018-08-04T11:59:24.450Z,569
2018-08-04T12:00:31.697Z,567
2018-08-04T12:01:38.916Z,566
2018-08-04T12:02:46.138Z,565
2018-08-04T12:03:53.098Z,565
2018-08-04T12:05:00.322Z,566
2018-08-04T12:06:07.544Z,565
2018-08-04T12:07:14.794Z,565
2018-08-04T12:08:22.034Z,562
2018-08-04T12:09:29.340Z,560
2018-08-04T12:10:36.303Z,558
2018-08-04T12:11:43.262Z,559
2018-08-04T12:12:50.508Z,551
2018-08-04T12:13:57.738Z,532
2018-08-04T12:15:04.973Z,519
2018-08-04T12:16:12.207Z,512
2018-08-04T12:17:19.153Z,507
2018-08-04T12:18:26.386Z,503
2018-08-04T12:19:33.614Z,502
2018-08-04T12:20:40.838Z,500
2018-08-04T12:21:47.796Z,509
2018-08-04T12:22:55.024Z,510
2018-08-04T12:24:01.994Z,507
2018-08-04T12:25:09.221Z,509
2018-08-04T12:26:16.448Z,513
2018-08-04T12:27:23.670Z,529
2018-08-04T12:28:30.899Z,549
2018-08-04T12:29:38.137Z,562
2018-08-04T12:30:45.357Z,570
2018-08-04T12:31:52.579Z,580
2018-08-04T12:32:59.802Z,587
2018-08-04T12:34:07.047Z,578
2018-08-04T12:35:14.258Z,525
2018-08-04T12:36:21.505Z,436
2018-08-04T12:37:27.938Z,506
2018-08-04T12:38:35.190Z,486
2018-08-04T12:39:42.416Z,505
2018-08-04T12:40:49.434Z,472
2018-08-04T12:41:56.664Z,503
2018-08-04T12:43:03.893Z,516
2018-08-04T12:44:10.566Z,508
2018-08-04T12:45:17.799Z,518
2018-08-04T12:46:25.033Z,503
2018-08-04T12:47:32.259Z,528
2018-08-04T12:48:39.486Z,530
2018-08-04T12:49:46.437Z,517
2018-08-04T12:50:53.656Z,517
2018-08-04T12:52:00.601Z,522
2018-08-04T12:53:07.854Z,534
2018-08-04T12:54:15.162Z,534
2018-08-04T12:55:22.388Z,521
2018-08-04T12:56:29.608Z,525
2018-08-04T12:57:36.556Z,515
2018-08-04T12:58:43.785Z,515
2018-08-04T12:59:51.011Z,517
2018-08-04T13:00:58.310Z,531
2018-08-04T13:02:05.533Z,520
2018-08-04T13:03:12.754Z,521
2018-08-04T13:04:19.697Z,539
2018-08-04T13:05:41.571Z,550
2018-08-04T13:06:48.789Z,542
2018-08-04T13:07:56.012Z,547
2018-08-04T13:09:03.225Z,549
2018-08-04T13:10:10.451Z,550
2018-08-04T13:11:17.683Z,534
2018-08-04T13:12:24.635Z,525
2018-08-04T13:13:31.858Z,525
2018-08-04T13:14:39.082Z,525
2018-08-04T13:15:46.030Z,525
2018-08-04T13:16:53.252Z,526
2018-08-04T13:18:00.470Z,527
2018-08-04T13:19:07.693Z,527
2018-08-04T13:20:14.940Z,518
2018-08-04T13:21:22.182Z,506
2018-08-04T13:22:29.412Z,511
2018-08-04T13:23:36.630Z,517
2018-08-04T13:24:43.854Z,518
2018-08-04T13:25:51.074Z,509
2018-08-04T13:26:58.297Z,510
2018-08-04T13:28:05.244Z,513
2018-08-04T13:29:12.468Z,511
2018-08-04T13:30:19.739Z,518
2018-08-04T13:31:26.962Z,522
2018-08-04T13:32:34.194Z,518
2018-08-04T13:33:41.408Z,521
2018-08-04T13:34:48.632Z,523
2018-08-04T13:35:55.855Z,518
2018-08-04T13:37:03.288Z,517
2018-08-04T13:38:10.606Z,516
2018-08-04T13:39:17.830Z,517
2018-08-04T13:40:25.069Z,519
2018-08-04T13:41:32.354Z,521
2018-08-04T13:42:39.575Z,523
2018-08-04T13:43:46.798Z,523
2018-08-04T13:44:54.022Z,523
2018-08-04T13:46:01.242Z,524
2018-08-04T13:47:08.467Z,523
2018-08-04T13:48:15.680Z,524
2018-08-04T13:49:22.903Z,524
2018-08-04T13:50:30.136Z,524
2018-08-04T13:51:37.347Z,524
2018-08-04T13:52:44.303Z,526
2018-08-04T13:53:51.526Z,527
2018-08-04T13:54:58.754Z,528
2018-08-04T13:56:05.976Z,529
2018-08-04T13:57:12.889Z,531
2018-08-04T13:58:20.096Z,532
2018-08-04T13:59:27.317Z,532
2018-08-04T14:00:34.557Z,533
2018-08-04T14:01:41.505Z,533
2018-08-04T14:02:48.729Z,532
2018-08-04T14:03:55.947Z,531
2018-08-04T14:05:03.171Z,527
2018-08-04T14:06:10.391Z,515
2018-08-04T14:07:17.614Z,501
2018-08-04T14:08:24.829Z,493
2018-08-04T14:09:32.062Z,485
2018-08-04T14:10:39.291Z,487
2018-08-04T14:11:46.244Z,500
2018-08-04T14:12:53.512Z,509
2018-08-04T14:14:00.738Z,513
2018-08-04T14:15:07.965Z,513
2018-08-04T14:16:15.183Z,510
2018-08-04T14:17:22.565Z,506
2018-08-04T14:18:29.892Z,508
2018-08-04T14:19:37.276Z,510
2018-08-04T14:20:44.494Z,510
2018-08-04T14:21:51.940Z,510
2018-08-04T14:22:59.369Z,512
2018-08-04T14:24:06.684Z,500
2018-08-04T14:25:13.634Z,493
2018-08-04T14:26:20.857Z,499
2018-08-04T14:27:28.078Z,509
2018-08-04T14:28:35.111Z,519
2018-08-04T14:29:42.357Z,523
2018-08-04T14:30:49.580Z,528
2018-08-04T14:31:56.796Z,525
2018-08-04T14:33:04.022Z,510
2018-08-04T14:34:10.978Z,505
2018-08-04T14:35:18.214Z,503
2018-08-04T14:36:25.459Z,508
2018-08-04T14:37:32.662Z,500
2018-08-04T14:38:39.885Z,491
2018-08-04T14:39:47.106Z,485
2018-08-04T14:40:54.338Z,483
2018-08-04T14:42:01.574Z,479
2018-08-04T14:43:08.836Z,477
2018-08-04T14:44:16.065Z,479
2018-08-04T14:45:23.008Z,479
2018-08-04T14:46:30.236Z,478
2018-08-04T14:47:37.456Z,478
2018-08-04T14:48:44.685Z,478
2018-08-04T14:49:51.905Z,479
2018-08-04T14:50:59.124Z,481
2018-08-04T14:52:06.350Z,480
2018-08-04T14:53:13.579Z,482
2018-08-04T14:54:20.808Z,484
2018-08-04T14:55:28.031Z,487
2018-08-04T14:56:34.981Z,488
2018-08-04T14:57:42.205Z,487
2018-08-04T14:58:49.422Z,485
2018-08-04T14:59:56.643Z,487
2018-08-04T15:01:03.870Z,488
2018-08-04T15:02:11.100Z,491
2018-08-04T15:03:18.314Z,494
2018-08-04T15:04:25.386Z,491
2018-08-04T15:05:32.634Z,488
2018-08-04T15:06:39.854Z,486
2018-08-04T15:07:47.075Z,487
2018-08-04T15:08:54.297Z,487
2018-08-04T15:10:01.682Z,486
2018-08-04T15:11:08.921Z,487
2018-08-04T15:12:15.867Z,488
2018-08-04T15:13:23.093Z,487
2018-08-04T15:14:30.315Z,491
2018-08-04T15:15:37.302Z,492
2018-08-04T15:16:44.572Z,492
2018-08-04T15:17:51.520Z,495
2018-08-04T15:18:58.738Z,496
2018-08-04T15:20:05.965Z,494
2018-08-04T15:21:13.187Z,493
2018-08-04T15:22:20.417Z,492
2018-08-04T15:23:27.674Z,491
2018-08-04T15:24:34.909Z,491
2018-08-04T15:25:42.128Z,494